Time;durP1;ratioP1;P1;durP2;ratioP2;P2;SDS_P1;SDS_P2;PMS_P1;PMS_P2;Temp;Humidity;BMP_temperature;BMP_pressure;BME280_temperature;BME280_humidity;BME280_pressure;Samples;Min_cycle;Max_cycle;Signal;HPM_P1;HPM_P2
2021/06/04 00:01:29;;;;;;;7.15;4.45;;;13.90;99.90;;;;;;4917327;29;20043;-90
2021/06/04 00:03:55;;;;;;;10.77;4.35;;;13.90;99.90;;;;;;4917056;29;20056;-92
2021/06/04 00:06:22;;;;;;;7.80;4.40;;;13.80;99.90;;;;;;4917839;29;20039;-91
2021/06/04 00:08:49;;;;;;;10.70;4.35;;;13.80;99.90;;;;;;4917199;29;20032;-92
2021/06/04 00:11:21;;;;;;;8.25;4.30;;;13.70;99.90;;;;;;4916616;29;20029;-93
2021/06/04 00:13:56;;;;;;;11.80;4.07;;;13.60;99.90;;;;;;4920137;29;20084;-93
2021/06/04 00:16:32;;;;;;;7.38;4.07;;;13.50;99.90;;;;;;4918484;29;20028;-93
2021/06/04 00:19:05;;;;;;;10.63;4.15;;;13.50;99.90;;;;;;4919534;29;20024;-91
2021/06/04 00:21:36;;;;;;;9.40;3.97;;;13.40;99.90;;;;;;4919441;29;20036;-92
2021/06/04 00:24:04;;;;;;;9.02;3.88;;;13.50;99.90;;;;;;4918670;29;20032;-90
2021/06/04 00:26:31;;;;;;;5.03;3.40;;;13.40;99.90;;;;;;4918040;29;20032;-91
2021/06/04 00:28:58;;;;;;;13.18;3.92;;;13.40;99.90;;;;;;4913863;29;20099;-92
2021/06/04 00:31:25;;;;;;;11.07;3.67;;;13.30;99.90;;;;;;4913946;29;20032;-93
2021/06/04 00:33:51;;;;;;;10.32;3.47;;;13.30;99.90;;;;;;4913954;29;20086;-91
2021/06/04 00:36:18;;;;;;;11.48;3.72;;;13.30;99.90;;;;;;4914239;29;20040;-92
2021/06/04 00:38:44;;;;;;;9.45;3.92;;;13.30;99.90;;;;;;4913574;29;20072;-92
2021/06/04 00:41:25;;;;;;;10.50;3.50;;;13.20;99.90;;;;;;4913148;29;20032;-92
2021/06/04 00:43:52;;;;;;;13.27;3.95;;;13.20;99.90;;;;;;4912743;29;20028;-92
2021/06/04 00:46:19;;;;;;;10.00;3.15;;;13.10;99.90;;;;;;4913109;29;20060;-91
2021/06/04 00:48:45;;;;;;;9.95;3.00;;;13.10;99.90;;;;;;4897521;29;20486;-93
2021/06/04 00:51:19;;;;;;;9.80;3.00;;;13.00;99.90;;;;;;4913095;29;20032;-91
2021/06/04 00:53:46;;;;;;;8.88;3.28;;;12.90;99.90;;;;;;4913721;29;20091;-92
2021/06/04 00:56:12;;;;;;;5.90;2.80;;;12.90;99.90;;;;;;4912406;29;20091;-92
2021/06/04 00:58:44;;;;;;;10.88;3.70;;;12.80;99.90;;;;;;4911436;29;20082;-91
2021/06/04 01:01:13;;;;;;;11.10;3.38;;;12.80;99.90;;;;;;4910849;29;20134;-92
2021/06/04 01:03:45;;;;;;;7.00;2.70;;;12.70;99.90;;;;;;4894473;29;20036;-91
2021/06/04 01:06:30;;;;;;;18.40;3.17;;;12.70;99.90;;;;;;4909903;29;20386;-92
2021/06/04 01:09:15;;;;;;;8.07;3.08;;;12.70;99.90;;;;;;4902327;29;20027;-92
2021/06/04 01:11:59;;;;;;;10.85;2.53;;;12.60;99.90;;;;;;4908961;29;20024;-91
2021/06/04 01:14:56;;;;;;;6.93;2.33;;;12.60;99.90;;;;;;4909350;29;20028;-91
2021/06/04 01:17:43;;;;;;;7.40;2.42;;;12.50;99.90;;;;;;4909445;29;20049;-91
2021/06/04 01:20:23;;;;;;;7.90;2.25;;;12.50;99.90;;;;;;4908545;29;20024;-90
2021/06/04 01:22:59;;;;;;;10.07;3.37;;;12.40;99.90;;;;;;4907932;29;20028;-90
2021/06/04 01:25:59;;;;;;;6.50;1.70;;;12.40;99.90;;;;;;4908306;29;20059;-91
2021/06/04 01:28:46;;;;;;;12.52;2.42;;;12.30;99.90;;;;;;4912377;29;20024;-91
2021/06/04 01:31:20;;;;;;;7.15;2.00;;;12.30;99.90;;;;;;4911263;29;20475;-90
2021/06/04 01:33:49;;;;;;;9.65;2.05;;;12.20;99.90;;;;;;4905217;29;20052;-91
2021/06/04 01:36:28;;;;;;;7.82;2.42;;;12.20;99.90;;;;;;4905061;29;20041;-92
2021/06/04 01:38:57;;;;;;;7.45;1.70;;;12.10;99.90;;;;;;4906887;29;20553;-92
2021/06/04 01:41:28;;;;;;;8.07;2.22;;;12.10;99.90;;;;;;4906450;29;20570;-91
2021/06/04 01:44:20;;;;;;;11.32;2.30;;;12.10;99.90;;;;;;4906671;29;20032;-90
2021/06/04 01:46:52;;;;;;;14.77;2.10;;;12.00;99.90;;;;;;4914448;29;20087;-91
2021/06/04 01:49:25;;;;;;;8.95;2.33;;;12.00;99.90;;;;;;4907288;29;20032;-91
2021/06/04 01:51:59;;;;;;;13.27;2.55;;;12.00;99.90;;;;;;4906492;29;20039;-91
2021/06/04 01:54:35;;;;;;;9.32;2.25;;;12.00;99.90;;;;;;4907378;29;20064;-91
2021/06/04 01:57:08;;;;;;;9.07;2.65;;;12.00;99.90;;;;;;4906077;29;20513;-91
2021/06/04 01:59:41;;;;;;;6.13;2.50;;;11.90;99.90;;;;;;4905478;29;20032;-91
2021/06/04 02:02:13;;;;;;;10.65;2.67;;;11.90;99.90;;;;;;4906518;29;20025;-92
2021/06/04 02:04:46;;;;;;;15.82;3.00;;;11.90;99.90;;;;;;4915026;29;20039;-91
2021/06/04 02:07:21;;;;;;;7.03;2.60;;;11.90;99.90;;;;;;4933216;29;20071;-93
2021/06/04 02:09:55;;;;;;;8.80;3.10;;;11.90;99.90;;;;;;4916685;29;20028;-91
2021/06/04 07:50:58;;;;;;;5.60;1.30;;;14.10;91.30;;;;;;5231327;23;20108;-92
2021/06/04 07:53:27;;;;;;;5.22;1.25;;;14.10;90.90;;;;;;4869285;29;20409;-93
2021/06/04 07:55:57;;;;;;;5.88;1.35;;;14.30;90.80;;;;;;4886592;29;20028;-93
2021/06/04 07:58:26;;;;;;;2.10;1.00;;;14.50;90.50;;;;;;4884147;29;20028;-92
2021/06/04 08:00:55;;;;;;;3.13;0.95;;;14.60;89.20;;;;;;4883806;29;20090;-92
2021/06/04 08:03:32;;;;;;;6.38;1.17;;;14.60;88.40;;;;;;4884991;29;20029;-91
2021/06/04 08:05:58;;;;;;;4.05;1.05;;;14.70;87.80;;;;;;4884474;29;20032;-92
2021/06/04 08:08:34;;;;;;;4.80;1.02;;;14.80;87.40;;;;;;4900278;29;20020;-92
2021/06/04 08:11:05;;;;;;;4.43;1.13;;;14.90;86.40;;;;;;4871315;29;20044;-91
2021/06/04 08:13:32;;;;;;;2.00;1.10;;;15.00;85.60;;;;;;4905564;29;20060;-93
2021/06/04 08:16:15;;;;;;;3.60;1.00;;;15.10;84.70;;;;;;4889553;29;20060;-93
2021/06/04 08:18:52;;;;;;;2.28;0.98;;;15.20;83.80;;;;;;4885498;29;20123;-91
2021/06/04 08:21:25;;;;;;;3.75;0.90;;;15.40;83.10;;;;;;4902088;29;20180;-92
2021/06/04 08:24:01;;;;;;;4.63;0.90;;;15.60;82.40;;;;;;4887915;29;20035;-92
2021/06/04 08:26:50;;;;;;;1.83;0.90;;;15.70;81.60;;;;;;4888531;29;20038;-93
2021/06/04 08:29:38;;;;;;;2.65;0.88;;;15.90;80.20;;;;;;4904689;29;20032;-92
2021/06/04 08:32:09;;;;;;;3.15;0.77;;;16.20;79.10;;;;;;4888431;29;20037;-92
2021/06/04 08:34:38;;;;;;;2.50;0.60;;;16.30;78.10;;;;;;4905449;29;20036;-92
2021/06/04 08:37:11;;;;;;;3.28;1.20;;;16.40;77.40;;;;;;4888800;29;20127;-92
2021/06/04 08:39:40;;;;;;;4.55;0.77;;;16.50;76.70;;;;;;4873847;29;20064;-93
2021/06/04 08:42:28;;;;;;;4.68;1.40;;;16.60;75.90;;;;;;4892684;29;20033;-93
2021/06/04 08:45:25;;;;;;;3.33;0.65;;;16.70;75.50;;;;;;4919899;29;20097;-92
2021/06/04 08:48:20;;;;;;;3.60;0.80;;;16.90;75.00;;;;;;4920271;29;20005;-92
2021/06/04 08:51:10;;;;;;;5.90;0.93;;;17.10;74.60;;;;;;4872240;29;20112;-92
2021/06/04 08:53:58;;;;;;;6.00;0.65;;;17.30;73.30;;;;;;4894459;29;20061;-92
2021/06/04 08:56:43;;;;;;;4.57;0.90;;;17.30;71.90;;;;;;4917336;29;20064;-91
2021/06/04 08:59:16;;;;;;;3.70;0.90;;;17.40;70.60;;;;;;4896438;29;20043;-92
2021/06/04 09:01:57;;;;;;;6.05;0.82;;;17.60;70.30;;;;;;4913282;29;20040;-95
2021/06/04 09:04:31;;;;;;;1.13;0.60;;;17.70;70.20;;;;;;4897398;29;20180;-92
2021/06/04 09:07:19;;;;;;;3.28;0.80;;;17.90;69.30;;;;;;4914124;29;20088;-93
2021/06/04 09:09:48;;;;;;;4.78;0.85;;;18.00;68.10;;;;;;4900004;29;20037;-94
2021/06/04 09:12:43;;;;;;;2.22;0.90;;;18.10;67.60;;;;;;4915211;29;20033;-93
2021/06/04 09:15:13;;;;;;;1.85;0.75;;;18.40;66.90;;;;;;4899587;29;20119;-94
2021/06/04 09:17:59;;;;;;;4.78;0.90;;;18.70;66.50;;;;;;4915421;29;20028;-94
2021/06/04 09:20:50;;;;;;;2.53;1.17;;;18.80;65.60;;;;;;4898026;29;20092;-93
2021/06/04 09:23:25;;;;;;;3.05;0.57;;;18.80;65.10;;;;;;4915632;29;20064;-90
2021/06/04 09:25:51;;;;;;;2.53;0.95;;;18.90;65.40;;;;;;4900460;29;20036;-92
2021/06/04 09:28:18;;;;;;;4.28;0.70;;;19.00;65.60;;;;;;4899200;29;20028;-93
2021/06/04 09:30:50;;;;;;;3.20;0.75;;;19.00;65.60;;;;;;4898735;29;20040;-93
2021/06/04 09:33:21;;;;;;;2.58;0.80;;;19.10;65.40;;;;;;4898798;29;20061;-90
2021/06/04 09:35:59;;;;;;;3.28;0.60;;;19.20;65.10;;;;;;4912954;29;20053;-92
2021/06/04 09:38:32;;;;;;;3.00;0.80;;;19.20;65.60;;;;;;4896949;29;20173;-92
2021/06/04 09:41:25;;;;;;;5.20;0.60;;;19.30;64.60;;;;;;4911740;29;20189;-91
2021/06/04 09:44:32;;;;;;;1.55;1.20;;;19.30;64.20;;;;;;4910968;29;20088;-93
2021/06/04 09:47:09;;;;;;;1.75;0.57;;;19.30;63.60;;;;;;4891893;29;20063;-92
2021/06/04 09:49:56;;;;;;;1.60;0.80;;;19.30;63.60;;;;;;4912195;29;20025;-92
2021/06/04 09:52:36;;;;;;;3.10;0.70;;;19.30;63.70;;;;;;4895318;29;20100;-93
2021/06/04 09:55:24;;;;;;;5.93;0.93;;;19.20;63.40;;;;;;4896278;29;20044;-93
2021/06/04 09:58:01;;;;;;;3.17;0.47;;;19.10;63.60;;;;;;4897597;29;20024;-92
2021/06/04 10:00:46;;;;;;;4.00;0.88;;;19.00;64.00;;;;;;4899463;29;20064;-95
2021/06/04 10:03:25;;;;;;;6.93;1.05;;;19.00;64.00;;;;;;4902170;29;20060;-94
2021/06/04 10:06:26;;;;;;;5.32;0.85;;;18.90;64.10;;;;;;4901970;29;20036;-93
2021/06/04 10:09:27;;;;;;;7.15;1.10;;;18.90;63.70;;;;;;4887456;29;20052;-93
2021/06/04 10:11:59;;;;;;;2.83;0.88;;;18.90;63.40;;;;;;4883727;29;20032;-93
2021/06/04 10:14:47;;;;;;;6.63;0.60;;;19.00;63.20;;;;;;4896082;29;20036;-93
2021/06/04 10:20:38;;;;;;;2.42;0.60;;;19.00;62.70;;;;;;4913467;29;20045;-94
2021/06/04 10:23:11;;;;;;;3.35;0.80;;;19.00;62.70;;;;;;4913366;29;20080;-94
2021/06/04 10:25:52;;;;;;;3.38;0.70;;;19.00;62.30;;;;;;4896636;29;20033;-93
2021/06/04 10:28:47;;;;;;;4.40;1.40;;;19.00;61.90;;;;;;4896797;29;20096;-94
2021/06/04 10:31:16;;;;;;;2.35;0.77;;;19.00;61.60;;;;;;4896137;29;20041;-94
2021/06/04 10:34:17;;;;;;;4.07;0.93;;;19.00;61.60;;;;;;4914379;29;20039;-93
2021/06/04 10:36:48;;;;;;;3.20;0.57;;;19.00;61.70;;;;;;4899239;29;20032;-93
2021/06/04 10:39:35;;;;;;;1.70;0.60;;;19.10;61.90;;;;;;4909172;29;20462;-94
2021/06/04 10:42:26;;;;;;;2.63;0.88;;;19.10;60.80;;;;;;4899548;29;20133;-95
2021/06/04 10:45:08;;;;;;;3.13;1.02;;;19.10;60.10;;;;;;4887081;29;20041;-93
2021/06/04 10:48:10;;;;;;;3.33;0.60;;;19.10;60.30;;;;;;4898101;29;20021;-95
2021/06/04 10:51:05;;;;;;;3.72;0.75;;;19.20;59.90;;;;;;4885969;29;20033;-94
2021/06/04 10:53:47;;;;;;;4.40;0.90;;;19.50;59.60;;;;;;4898346;29;20025;-94
2021/06/04 10:56:27;;;;;;;1.50;0.70;;;19.70;59.20;;;;;;4908031;29;20036;-93
2021/06/04 10:59:08;;;;;;;3.42;1.90;;;19.80;59.00;;;;;;4895898;29;20127;-92
2021/06/04 11:01:44;;;;;;;2.95;0.60;;;20.00;59.00;;;;;;4907052;29;20044;-95
2021/06/04 11:04:32;;;;;;;5.22;1.02;;;20.10;58.40;;;;;;4889838;29;20124;-94
2021/06/04 11:07:32;;;;;;;0.93;0.60;;;20.20;57.70;;;;;;4891074;29;20025;-95
2021/06/04 11:10:09;;;;;;;5.63;0.70;;;20.40;57.10;;;;;;4873889;29;20044;-94
2021/06/04 11:13:08;;;;;;;1.95;0.52;;;20.40;56.60;;;;;;4904800;29;20032;-93
2021/06/04 11:16:09;;;;;;;1.10;0.40;;;20.40;55.50;;;;;;4851625;29;20043;-93
2021/06/04 11:18:51;;;;;;;2.25;0.50;;;20.50;55.30;;;;;;4891218;29;20099;-94
2021/06/04 11:21:38;;;;;;;1.85;0.65;;;20.80;55.00;;;;;;4904369;29;20040;-95
2021/06/04 11:24:31;;;;;;;3.63;0.50;;;21.10;53.80;;;;;;4890822;29;20110;-92
2021/06/04 11:26:57;;;;;;;3.80;0.70;;;21.30;53.30;;;;;;4877282;29;20092;-93
2021/06/04 11:29:40;;;;;;;1.83;0.40;;;21.60;53.20;;;;;;4877375;29;20040;-96
2021/06/04 11:32:37;;;;;;;0.55;0.25;;;21.90;52.10;;;;;;4877426;29;20410;-94
2021/06/04 11:35:20;;;;;;;3.67;0.60;;;22.10;50.60;;;;;;4889395;29;20048;-96
2021/06/04 11:37:56;;;;;;;0.52;0.40;;;22.10;50.30;;;;;;4873709;29;20029;-94
2021/06/04 11:40:38;;;;;;;2.00;0.45;;;22.10;50.30;;;;;;4878706;29;20040;-94
2021/06/04 11:43:25;;;;;;;1.23;0.55;;;22.10;50.90;;;;;;4878997;29;20037;-95
2021/06/04 11:46:27;;;;;;;3.22;0.57;;;22.10;51.70;;;;;;4883893;29;20029;-94
2021/06/04 11:48:59;;;;;;;1.83;0.45;;;22.20;52.30;;;;;;4863087;29;20022;-93
2021/06/04 11:51:38;;;;;;;2.75;0.52;;;22.00;52.10;;;;;;4885763;29;20073;-96
2021/06/04 11:54:38;;;;;;;3.97;0.70;;;21.90;51.70;;;;;;4874939;29;20093;-95
2021/06/04 11:57:43;;;;;;;1.05;0.40;;;21.80;51.70;;;;;;4883642;29;20053;-95
2021/06/04 12:00:28;;;;;;;1.88;0.60;;;21.80;52.10;;;;;;4899414;29;20033;-95
2021/06/04 12:03:14;;;;;;;2.10;0.50;;;21.80;51.40;;;;;;4880577;29;20033;-95
2021/06/04 12:05:55;;;;;;;1.30;0.55;;;21.80;50.60;;;;;;4877489;29;20033;-96
2021/06/04 12:08:28;;;;;;;1.88;0.47;;;21.70;50.30;;;;;;4885692;29;20388;-94
2021/06/04 12:10:54;;;;;;;4.10;0.82;;;21.80;50.00;;;;;;4886337;29;20460;-95
2021/06/04 12:13:31;;;;;;;2.95;0.57;;;21.90;49.60;;;;;;4874550;29;20060;-93
2021/06/04 12:16:35;;;;;;;0.40;0.40;;;22.10;49.50;;;;;;4889473;29;20064;-94
2021/06/04 12:19:03;;;;;;;3.30;0.50;;;22.20;48.80;;;;;;4875154;29;20024;-94
2021/06/04 12:21:42;;;;;;;2.47;0.50;;;22.30;47.30;;;;;;4877970;29;20041;-91
2021/06/04 12:24:18;;;;;;;1.75;0.50;;;22.40;46.90;;;;;;4876083;29;20049;-91
2021/06/04 12:26:52;;;;;;;2.00;0.63;;;22.40;46.90;;;;;;4889572;29;20064;-92
2021/06/04 12:29:41;;;;;;;1.17;0.43;;;22.60;47.10;;;;;;4905972;29;20041;-94
2021/06/04 12:32:18;;;;;;;1.73;0.38;;;22.60;47.50;;;;;;4880305;29;20037;-94
2021/06/04 12:34:55;;;;;;;2.15;0.60;;;22.60;47.80;;;;;;4890040;29;20032;-94
2021/06/04 12:37:35;;;;;;;1.85;0.60;;;22.70;48.20;;;;;;4888423;29;20035;-94
2021/06/04 12:40:10;;;;;;;1.00;0.47;;;22.80;47.70;;;;;;4871310;29;20029;-93
2021/06/04 12:42:55;;;;;;;3.38;0.55;;;22.70;46.60;;;;;;4871256;29;20036;-94
2021/06/04 12:45:29;;;;;;;1.60;0.60;;;22.50;46.60;;;;;;4869949;29;20025;-93
2021/06/04 12:48:25;;;;;;;2.40;0.40;;;22.40;46.80;;;;;;4869947;29;20033;-92
2021/06/04 12:50:57;;;;;;;1.60;0.80;;;22.30;47.10;;;;;;4869907;29;20064;-94
2021/06/04 12:53:36;;;;;;;1.30;0.55;;;22.20;47.40;;;;;;4887226;29;20468;-93
2021/06/04 12:56:17;;;;;;;1.75;0.77;;;22.30;47.70;;;;;;4871507;29;20146;-95
2021/06/04 12:58:50;;;;;;;1.23;0.50;;;22.60;47.40;;;;;;4896389;29;20030;-94
2021/06/04 13:01:39;;;;;;;3.80;0.70;;;23.00;47.20;;;;;;4906147;29;20041;-95
2021/06/04 13:04:20;;;;;;;1.52;0.60;;;23.20;46.10;;;;;;4900599;29;20092;-95
2021/06/04 13:07:02;;;;;;;2.28;0.70;;;23.40;46.10;;;;;;4914675;29;20055;-95
2021/06/04 13:10:21;;;;;;;2.15;0.65;;;23.50;46.10;;;;;;4882872;29;20520;-95
2021/06/04 13:12:53;;;;;;;1.17;0.40;;;23.80;46.00;;;;;;4913118;29;20047;-95
2021/06/04 13:15:21;;;;;;;1.65;0.50;;;23.90;45.90;;;;;;4889919;29;20049;-94
2021/06/04 13:18:06;;;;;;;3.15;0.80;;;24.00;46.10;;;;;;4875431;29;20036;-95
2021/06/04 13:20:42;;;;;;;2.60;0.85;;;24.20;46.00;;;;;;4877459;29;20080;-95
2021/06/04 13:23:11;;;;;;;5.22;0.55;;;24.30;45.50;;;;;;4877075;29;20097;-94
2021/06/04 13:25:42;;;;;;;3.40;0.73;;;24.50;45.70;;;;;;4907476;29;20028;-93
2021/06/04 13:28:31;;;;;;;6.85;0.75;;;24.80;45.80;;;;;;4892269;29;20032;-95
2021/06/04 13:31:01;;;;;;;;;;;24.80;45.00;;;;;;4912032;29;20057;-92
2021/06/04 13:33:36;;;;;;;2.10;0.70;;;24.70;44.70;;;;;;4897498;29;19907;-93
2021/06/04 13:36:06;;;;;;;2.30;0.75;;;24.70;44.50;;;;;;4910499;29;20041;-94
2021/06/04 13:38:37;;;;;;;3.53;0.85;;;24.80;44.50;;;;;;4895962;29;20025;-95
2021/06/04 13:41:11;;;;;;;4.18;0.70;;;24.90;44.60;;;;;;4895361;29;20048;-94
2021/06/04 13:43:54;;;;;;;3.05;0.60;;;24.90;44.20;;;;;;4877963;29;20127;-94
2021/06/04 13:46:59;;;;;;;2.30;0.73;;;25.00;43.90;;;;;;4892946;29;20040;-94
2021/06/04 13:50:13;;;;;;;2.22;0.80;;;25.10;43.80;;;;;;4835237;29;20037;-93
2021/06/04 13:53:01;;;;;;;1.75;0.50;;;25.40;43.40;;;;;;4829084;29;20050;-93
2021/06/04 13:55:31;;;;;;;1.98;0.68;;;25.50;42.90;;;;;;4813211;29;20366;-93
2021/06/04 13:58:22;;;;;;;1.45;0.57;;;25.50;43.00;;;;;;4827092;29;20031;-95
2021/06/04 14:01:10;;;;;;;1.15;0.80;;;25.40;42.80;;;;;;4812308;29;20051;-94
2021/06/04 14:03:41;;;;;;;0.75;0.40;;;25.20;42.90;;;;;;4813332;29;20034;-92
2021/06/04 14:06:19;;;;;;;3.38;0.50;;;25.30;42.40;;;;;;4812312;29;20125;-94
2021/06/04 14:09:00;;;;;;;2.00;0.50;;;25.40;41.60;;;;;;4827662;29;20581;-92
2021/06/04 14:11:27;;;;;;;1.52;0.50;;;25.60;41.50;;;;;;4812146;29;20040;-93
2021/06/04 14:14:02;;;;;;;2.30;0.52;;;25.60;41.20;;;;;;4827584;29;20045;-90
2021/06/04 14:16:47;;;;;;;1.55;0.40;;;25.70;40.90;;;;;;4812212;29;20026;-91
2021/06/04 14:19:36;;;;;;;0.60;0.40;;;25.40;40.70;;;;;;4812575;29;20148;-91
2021/06/04 14:22:08;;;;;;;1.33;0.63;;;25.20;40.80;;;;;;4811483;29;20035;-91
2021/06/04 14:24:52;;;;;;;1.45;0.32;;;25.10;40.90;;;;;;4797024;29;20045;-92
2021/06/04 14:28:12;;;;;;;2.17;0.45;;;25.00;40.70;;;;;;4902889;29;20029;-90
2021/06/04 14:30:55;;;;;;;0.80;0.50;;;25.00;40.90;;;;;;4817775;29;20042;-94
2021/06/04 14:33:52;;;;;;;2.03;0.75;;;25.10;41.00;;;;;;4816482;29;20046;-92
2021/06/04 14:36:23;;;;;;;3.13;0.52;;;25.00;41.10;;;;;;4813969;29;20026;-92
2021/06/04 14:38:53;;;;;;;1.27;0.50;;;24.80;41.40;;;;;;4815928;29;20066;-92
2021/06/04 14:41:27;;;;;;;1.35;0.43;;;24.70;41.50;;;;;;4814771;29;20546;-94
2021/06/04 14:44:09;;;;;;;1.25;0.50;;;24.70;41.40;;;;;;4812023;29;20046;-93
2021/06/04 14:46:41;;;;;;;0.98;0.35;;;24.60;41.20;;;;;;4828611;29;20038;-93
2021/06/04 14:49:12;;;;;;;1.50;0.98;;;24.50;41.30;;;;;;4812112;29;20117;-92
2021/06/04 14:51:49;;;;;;;1.90;0.40;;;24.50;41.40;;;;;;4827403;29;20058;-91
2021/06/04 14:54:16;;;;;;;2.70;0.50;;;24.60;41.20;;;;;;4815207;29;20042;-91
2021/06/04 14:56:46;;;;;;;2.20;0.70;;;24.70;41.20;;;;;;4814397;29;20027;-92
2021/06/04 14:59:12;;;;;;;0.60;0.30;;;25.00;41.10;;;;;;4812118;29;20219;-93
2021/06/04 15:01:42;;;;;;;1.30;0.47;;;25.20;40.80;;;;;;4815602;29;20099;-94
2021/06/04 15:04:12;;;;;;;2.83;0.63;;;25.30;41.00;;;;;;4855409;29;20029;-93
2021/06/04 15:06:40;;;;;;;1.85;1.00;;;25.50;41.40;;;;;;4871302;29;20487;-92
2021/06/04 15:09:07;;;;;;;2.47;0.70;;;25.40;42.00;;;;;;4884703;29;20068;-93
2021/06/04 15:11:35;;;;;;;3.10;0.60;;;25.30;42.20;;;;;;4885358;29;20028;-92
2021/06/04 15:14:02;;;;;;;1.33;0.63;;;25.30;42.50;;;;;;4887181;29;20028;-92
2021/06/04 15:16:28;;;;;;;2.30;0.38;;;25.30;42.60;;;;;;4886973;29;20052;-91
2021/06/04 15:18:54;;;;;;;0.77;0.30;;;25.30;42.60;;;;;;4887620;29;20033;-94
2021/06/04 15:21:23;;;;;;;3.47;0.70;;;25.20;42.50;;;;;;4891523;29;20135;-92
2021/06/04 15:23:49;;;;;;;1.58;0.45;;;25.20;42.10;;;;;;4894596;29;20035;-92
2021/06/04 15:26:19;;;;;;;1.80;0.60;;;25.10;41.90;;;;;;4896556;29;20100;-92
2021/06/04 15:28:48;;;;;;;1.52;0.60;;;25.20;42.20;;;;;;4896085;29;20099;-91
2021/06/04 15:31:20;;;;;;;2.65;0.65;;;25.20;42.30;;;;;;4894337;29;20029;-92
2021/06/04 15:33:46;;;;;;;5.97;0.75;;;25.10;42.60;;;;;;4906614;29;20423;-95
2021/06/04 15:36:12;;;;;;;4.75;0.98;;;25.00;42.80;;;;;;4888777;29;20024;-92
2021/06/04 15:38:38;;;;;;;1.00;0.70;;;24.80;43.00;;;;;;4889285;29;20095;-92
2021/06/04 15:41:06;;;;;;;6.18;1.42;;;24.80;43.30;;;;;;4887398;29;20041;-93
2021/06/04 15:43:34;;;;;;;3.30;0.63;;;24.80;43.30;;;;;;4871423;29;20475;-92
2021/06/04 15:46:01;;;;;;;1.35;0.65;;;24.70;43.30;;;;;;4887079;29;20176;-91
2021/06/04 15:48:27;;;;;;;4.72;0.88;;;24.70;43.50;;;;;;4904484;29;20377;-92
2021/06/04 15:50:54;;;;;;;1.17;0.70;;;24.70;43.60;;;;;;4888253;29;20049;-91
2021/06/04 15:53:23;;;;;;;6.53;1.60;;;24.80;43.40;;;;;;4889116;29;20052;-93
2021/06/04 15:55:50;;;;;;;5.57;1.05;;;24.80;44.20;;;;;;4904950;29;20399;-91
2021/06/04 15:58:15;;;;;;;1.13;0.75;;;24.70;44.70;;;;;;4890923;29;20036;-92
2021/06/04 16:00:44;;;;;;;4.65;1.30;;;24.70;44.40;;;;;;4889540;29;20108;-92
2021/06/04 16:03:11;;;;;;;5.30;1.10;;;24.90;44.70;;;;;;4890044;29;20119;-92
2021/06/04 16:05:45;;;;;;;4.05;1.60;;;25.00;45.30;;;;;;4886274;29;20064;-92
2021/06/04 16:08:12;;;;;;;6.80;1.85;;;25.20;46.20;;;;;;4887486;29;20064;-93
2021/06/04 16:10:43;;;;;;;7.85;2.42;;;25.40;47.00;;;;;;4887569;29;20526;-92
2021/06/04 16:13:14;;;;;;;11.57;2.28;;;25.50;48.20;;;;;;4878161;29;20501;-92
2021/06/04 16:15:44;;;;;;;10.00;2.60;;;25.40;49.20;;;;;;4883103;29;20041;-93
2021/06/04 16:18:11;;;;;;;6.55;2.45;;;25.20;49.90;;;;;;4867371;29;20076;-90
2021/06/04 16:20:40;;;;;;;4.53;2.17;;;25.30;50.40;;;;;;4868201;29;20033;-92
2021/06/04 16:23:09;;;;;;;7.05;2.40;;;25.20;50.30;;;;;;4853102;29;20128;-91
2021/06/04 16:25:39;;;;;;;10.68;1.90;;;25.20;50.40;;;;;;4884515;29;20033;-91
2021/06/04 16:28:04;;;;;;;5.68;2.00;;;25.30;50.60;;;;;;4869558;29;20028;-92
2021/06/04 16:30:34;;;;;;;5.55;2.03;;;25.40;50.60;;;;;;4870890;29;20106;-92
2021/06/04 16:33:01;;;;;;;4.40;2.28;;;25.40;50.60;;;;;;4854105;29;20033;-93
2021/06/04 16:35:32;;;;;;;7.70;2.80;;;25.20;50.70;;;;;;4869249;29;20029;-92
2021/06/04 16:37:59;;;;;;;5.78;2.08;;;25.10;50.70;;;;;;4867987;29;20089;-94
2021/06/04 16:40:25;;;;;;;4.22;1.70;;;24.80;50.90;;;;;;4867198;29;20510;-94
2021/06/04 16:42:54;;;;;;;7.38;1.95;;;24.70;51.40;;;;;;4868410;29;20051;-92
2021/06/04 16:45:25;;;;;;;7.90;2.33;;;24.70;51.70;;;;;;4868560;29;20025;-92
2021/06/04 16:47:53;;;;;;;5.07;2.05;;;24.60;51.90;;;;;;4868096;29;20488;-92
2021/06/04 16:50:30;;;;;;;6.55;1.92;;;24.50;52.00;;;;;;4869631;29;20060;-95
2021/06/04 16:52:58;;;;;;;7.43;1.73;;;24.40;52.00;;;;;;4877709;29;20029;-94
2021/06/04 16:55:33;;;;;;;5.82;1.98;;;24.20;52.00;;;;;;4894036;29;20032;-93
2021/06/04 16:58:05;;;;;;;11.02;2.33;;;24.10;52.40;;;;;;4878341;29;20033;-94
2021/06/04 17:00:35;;;;;;;4.13;1.63;;;24.20;52.40;;;;;;4876667;29;20051;-92
2021/06/04 17:03:02;;;;;;;4.53;1.73;;;24.10;52.40;;;;;;4877242;29;20028;-92
2021/06/04 17:05:29;;;;;;;6.28;2.08;;;24.10;52.60;;;;;;4873818;29;20534;-93
2021/06/04 17:07:55;;;;;;;6.53;2.10;;;24.00;52.80;;;;;;4870621;29;20029;-92
2021/06/04 17:10:22;;;;;;;2.15;1.45;;;23.90;53.10;;;;;;4880020;29;20387;-92
2021/06/04 17:12:49;;;;;;;8.25;1.75;;;23.80;53.00;;;;;;4877264;29;20033;-93
2021/06/04 17:15:21;;;;;;;13.50;2.58;;;23.60;53.50;;;;;;4876551;29;20063;-92
2021/06/04 17:17:46;;;;;;;5.82;1.77;;;23.30;54.00;;;;;;4876834;29;20120;-92
2021/06/04 17:20:13;;;;;;;6.80;2.13;;;23.10;54.40;;;;;;4876265;29;20025;-92
2021/06/04 17:22:41;;;;;;;4.88;1.83;;;23.00;54.60;;;;;;4875583;29;20037;-92
2021/06/04 17:25:08;;;;;;;3.80;1.65;;;22.80;54.70;;;;;;4891137;29;20040;-93
2021/06/04 17:27:34;;;;;;;8.45;1.88;;;22.60;55.00;;;;;;4876350;29;20041;-92
2021/06/04 17:30:03;;;;;;;6.47;1.80;;;22.30;55.50;;;;;;4878795;29;20036;-91
2021/06/04 17:32:29;;;;;;;6.13;1.88;;;22.20;55.90;;;;;;4878039;29;20040;-93
2021/06/04 17:34:55;;;;;;;5.47;1.67;;;22.10;56.20;;;;;;4877370;29;20554;-93
2021/06/04 17:37:22;;;;;;;5.95;1.90;;;22.10;56.30;;;;;;4875774;29;20052;-92
2021/06/04 17:39:49;;;;;;;8.00;2.47;;;22.10;56.40;;;;;;4876733;29;20029;-94
2021/06/04 17:42:14;;;;;;;4.90;2.03;;;22.00;56.60;;;;;;4892211;29;20143;-93
2021/06/04 17:44:40;;;;;;;5.25;1.90;;;21.90;56.90;;;;;;4876703;29;20025;-91
2021/06/04 17:47:06;;;;;;;7.47;2.05;;;21.90;57.10;;;;;;4876700;29;20082;-93
2021/06/04 17:49:35;;;;;;;8.07;1.85;;;21.80;57.10;;;;;;4876450;29;20092;-93
2021/06/04 17:52:00;;;;;;;6.80;1.77;;;21.80;57.10;;;;;;4876824;29;20056;-94
2021/06/04 17:54:26;;;;;;;4.78;1.70;;;21.80;57.20;;;;;;4876938;29;20120;-92
2021/06/04 17:56:52;;;;;;;3.50;1.50;;;21.80;57.30;;;;;;4876653;29;20033;-93
2021/06/04 17:59:21;;;;;;;9.77;2.25;;;21.80;57.40;;;;;;4876910;29;20033;-92
2021/06/04 18:01:49;;;;;;;8.93;2.40;;;21.70;57.70;;;;;;4877043;29;20105;-93
2021/06/04 18:04:16;;;;;;;7.88;1.88;;;21.50;57.90;;;;;;4877229;29;20033;-94
2021/06/04 18:06:42;;;;;;;5.78;1.95;;;21.40;58.10;;;;;;4877381;29;20040;-93
2021/06/04 18:09:08;;;;;;;5.20;1.88;;;21.30;58.30;;;;;;4876413;29;20029;-93
2021/06/04 18:11:34;;;;;;;10.55;2.25;;;21.20;58.40;;;;;;4875934;29;20055;-93
2021/06/04 18:14:01;;;;;;;3.40;1.90;;;21.10;58.60;;;;;;4877071;29;20472;-93
2021/06/04 18:16:27;;;;;;;5.65;2.03;;;21.00;58.80;;;;;;4876893;29;20068;-94
2021/06/04 18:18:54;;;;;;;3.85;1.98;;;20.90;59.00;;;;;;4877241;29;20101;-93
2021/06/04 18:21:20;;;;;;;8.40;1.70;;;20.80;59.30;;;;;;4875936;29;20125;-94
2021/06/04 18:23:49;;;;;;;5.78;1.65;;;20.70;59.50;;;;;;4892400;29;20033;-93
2021/06/04 18:26:17;;;;;;;6.38;2.15;;;20.70;59.90;;;;;;4875883;29;20058;-92
2021/06/04 18:28:48;;;;;;;8.27;2.70;;;20.60;60.10;;;;;;4876145;29;20097;-92
2021/06/04 18:31:16;;;;;;;5.53;2.63;;;20.60;60.40;;;;;;4876512;29;20029;-92
2021/06/04 18:33:42;;;;;;;5.57;2.28;;;20.60;60.70;;;;;;4877104;29;20025;-91
2021/06/04 18:36:08;;;;;;;9.13;2.22;;;20.60;60.70;;;;;;4876734;29;20036;-92
2021/06/04 18:38:34;;;;;;;5.75;2.75;;;20.50;61.20;;;;;;4875375;29;20029;-93
2021/06/04 18:41:01;;;;;;;5.57;2.60;;;20.40;61.90;;;;;;4874433;29;20040;-94
2021/06/04 18:43:34;;;;;;;9.27;2.75;;;20.30;62.50;;;;;;4874577;29;20128;-93
2021/06/04 18:46:03;;;;;;;6.90;2.72;;;20.10;63.20;;;;;;4874665;29;20033;-92
2021/06/04 18:48:30;;;;;;;10.07;2.75;;;19.90;64.00;;;;;;4890996;29;20036;-91
2021/06/04 18:50:56;;;;;;;7.25;2.25;;;19.90;64.60;;;;;;4874036;29;20060;-93
2021/06/04 18:53:28;;;;;;;8.07;2.03;;;19.90;65.00;;;;;;4874526;29;20037;-93
2021/06/04 18:55:58;;;;;;;10.88;2.55;;;19.80;65.10;;;;;;4871760;29;20495;-93
2021/06/04 18:58:24;;;;;;;7.88;2.28;;;19.80;65.40;;;;;;4872184;29;20033;-92
2021/06/04 19:01:00;;;;;;;5.88;2.28;;;19.70;65.70;;;;;;4871717;29;20066;-93
2021/06/04 19:03:33;;;;;;;7.28;2.67;;;19.60;66.00;;;;;;4872094;29;20116;-92
2021/06/04 19:06:03;;;;;;;5.70;2.10;;;19.60;66.30;;;;;;4888933;29;20033;-92
2021/06/04 19:08:55;;;;;;;6.43;2.80;;;19.50;66.50;;;;;;4859121;29;20033;-92
2021/06/04 19:11:26;;;;;;;7.47;2.05;;;19.40;66.80;;;;;;4875144;29;20132;-92